KCWA/CWA METAR and TAF weather

Enter ICAO airport designator
Station Type Date Time Source
KCWA METAR 2018/01/22 19:47 UTC NOAA

KCWA 221947Z 05015G25KT 1 1/2SM -SN OVC009 01/00 A2955


Station Type Date Time Source
KCWA Decoded METAR 2018/01/22 19:47 UTC NOAA

Mosinee / Central Wisconsin, WI, United States (KCWA) 44-47N 089-40W
Jan 22, 2018 - 02:47 PM EST / 2018.01.22 1947 UTC
Wind: from the NE (050 degrees) at 17 MPH (15 KT) gusting to 29 MPH (25 KT):0
Visibility: 1 1/2 mile(s):0
Sky conditions: overcast
Weather: light snow
Temperature: 33 F (1 C)
Windchill: 23 F (-5 C):1
Dew Point: 32 F (0 C)
Relative Humidity: 93%
Pressure (altimeter): 29.55 in. Hg (1000 hPa)
ob: KCWA 221947Z 05015G25KT 1 1/2SM -SN OVC009 01/00 A2955
cycle: 20

Station Type Date Time Source
KCWA TAF 2018/01/22 18:40 UTC NOAA

TAF KCWA 221738Z 2218/2318 05015G24KT 1SM -SN OVC008 WS020/07045KT
TEMPO 2218/2222 1/2SM SN OVC002
FM222300 04014G22KT 2SM -SN OVC011 WS020/05040KT
FM230300 02012G20KT 4SM -FZDZSN OVC011 WS020/05040KT
FM230700 02012G20KT 4SM -SN OVC011 WS020/05040KT
FM231100 35011G23KT P6SM BKN020 WS020/01040KT


Example: see airport list